sensor_id;sensor_type;location;lat;lon;timestamp;pressure;altitude;pressure_sealevel;temperature;humidity
74336;BME280;62755;-33.398;-70.572;2024-03-22T00:00:19;93152.19;;;26.82;34.77
74336;BME280;62755;-33.398;-70.572;2024-03-22T00:02:47;93149.25;;;26.75;35.34
74336;BME280;62755;-33.398;-70.572;2024-03-22T00:05:17;93151.66;;;26.84;35.00
74336;BME280;62755;-33.398;-70.572;2024-03-22T00:07:48;93152.91;;;26.83;34.84
74336;BME280;62755;-33.398;-70.572;2024-03-22T00:10:20;93156.69;;;26.80;35.62
74336;BME280;62755;-33.398;-70.572;2024-03-22T00:12:50;93155.25;;;26.73;35.85
74336;BME280;62755;-33.398;-70.572;2024-03-22T00:15:20;93158.19;;;26.81;35.30
74336;BME280;62755;-33.398;-70.572;2024-03-22T00:17:48;93159.72;;;26.76;35.36
74336;BME280;62755;-33.398;-70.572;2024-03-22T00:20:18;93164.25;;;26.74;36.18
74336;BME280;62755;-33.398;-70.572;2024-03-22T00:22:47;93160.75;;;26.68;36.39
74336;BME280;62755;-33.398;-70.572;2024-03-22T00:25:16;93161.28;;;26.66;36.35
74336;BME280;62755;-33.398;-70.572;2024-03-22T00:27:47;93167.84;;;26.58;35.85
74336;BME280;62755;-33.398;-70.572;2024-03-22T00:30:17;93171.38;;;26.53;36.01
74336;BME280;62755;-33.398;-70.572;2024-03-22T00:32:45;93178.13;;;26.52;36.48
74336;BME280;62755;-33.398;-70.572;2024-03-22T00:35:15;93171.38;;;26.53;36.03
74336;BME280;62755;-33.398;-70.572;2024-03-22T00:37:43;93179.59;;;26.58;35.88
74336;BME280;62755;-33.398;-70.572;2024-03-22T00:40:13;93179.66;;;26.53;36.14
74336;BME280;62755;-33.398;-70.572;2024-03-22T00:42:42;93177.84;;;26.61;36.34
74336;BME280;62755;-33.398;-70.572;2024-03-22T00:45:13;93184.34;;;26.58;36.27
74336;BME280;62755;-33.398;-70.572;2024-03-22T00:47:42;93182.94;;;26.46;36.68
74336;BME280;62755;-33.398;-70.572;2024-03-22T00:50:12;93181.63;;;26.52;36.91
74336;BME280;62755;-33.398;-70.572;2024-03-22T00:52:40;93189.38;;;26.54;36.72
74336;BME280;62755;-33.398;-70.572;2024-03-22T00:55:10;93182.41;;;26.53;36.75
74336;BME280;62755;-33.398;-70.572;2024-03-22T00:57:38;93187.91;;;26.53;37.12
74336;BME280;62755;-33.398;-70.572;2024-03-22T01:00:09;93184.66;;;26.49;37.34
74336;BME280;62755;-33.398;-70.572;2024-03-22T01:02:39;93189.25;;;26.35;37.21
74336;BME280;62755;-33.398;-70.572;2024-03-22T01:05:09;93187.03;;;26.34;37.59
74336;BME280;62755;-33.398;-70.572;2024-03-22T01:07:37;93184.06;;;26.26;37.35
74336;BME280;62755;-33.398;-70.572;2024-03-22T01:10:08;93179.06;;;26.25;36.92
74336;BME280;62755;-33.398;-70.572;2024-03-22T01:12:36;93183.38;;;26.15;37.32
74336;BME280;62755;-33.398;-70.572;2024-03-22T01:15:07;93188.91;;;26.09;36.88
74336;BME280;62755;-33.398;-70.572;2024-03-22T01:17:37;93195.16;;;25.98;37.06
74336;BME280;62755;-33.398;-70.572;2024-03-22T01:20:07;93198.16;;;26.12;36.80
74336;BME280;62755;-33.398;-70.572;2024-03-22T01:22:36;93195.63;;;26.14;36.93
74336;BME280;62755;-33.398;-70.572;2024-03-22T01:25:08;93199.31;;;26.27;36.43
74336;BME280;62755;-33.398;-70.572;2024-03-22T01:27:36;93203.56;;;26.23;36.83
74336;BME280;62755;-33.398;-70.572;2024-03-22T01:30:07;93200.38;;;26.13;37.49
74336;BME280;62755;-33.398;-70.572;2024-03-22T01:32:38;93197.47;;;25.94;37.22
74336;BME280;62755;-33.398;-70.572;2024-03-22T01:35:09;93196.50;;;25.86;37.17
74336;BME280;62755;-33.398;-70.572;2024-03-22T01:37:37;93187.56;;;25.64;38.20
74336;BME280;62755;-33.398;-70.572;2024-03-22T01:40:08;93191.09;;;25.59;37.89
74336;BME280;62755;-33.398;-70.572;2024-03-22T01:42:36;93189.84;;;25.54;38.37
74336;BME280;62755;-33.398;-70.572;2024-03-22T01:45:07;93195.88;;;25.47;38.11
74336;BME280;62755;-33.398;-70.572;2024-03-22T01:47:35;93197.84;;;25.52;38.36
74336;BME280;62755;-33.398;-70.572;2024-03-22T01:50:08;93203.56;;;25.71;37.20
74336;BME280;62755;-33.398;-70.572;2024-03-22T01:52:38;93173.13;;;25.58;38.07
74336;BME280;62755;-33.398;-70.572;2024-03-22T01:55:09;93200.53;;;25.74;38.45
74336;BME280;62755;-33.398;-70.572;2024-03-22T01:57:39;93204.28;;;25.71;37.92
74336;BME280;62755;-33.398;-70.572;2024-03-22T02:00:10;93199.28;;;25.75;38.63
74336;BME280;62755;-33.398;-70.572;2024-03-22T02:02:38;93203.78;;;25.67;38.63
74336;BME280;62755;-33.398;-70.572;2024-03-22T02:05:16;93207.59;;;25.59;38.68
74336;BME280;62755;-33.398;-70.572;2024-03-22T02:07:46;93196.63;;;25.42;38.99
74336;BME280;62755;-33.398;-70.572;2024-03-22T02:10:17;93196.38;;;25.40;39.09
74336;BME280;62755;-33.398;-70.572;2024-03-22T02:12:45;93197.63;;;25.45;39.40
74336;BME280;62755;-33.398;-70.572;2024-03-22T02:15:15;93195.16;;;25.41;38.75
74336;BME280;62755;-33.398;-70.572;2024-03-22T02:17:43;93188.41;;;25.42;38.64
74336;BME280;62755;-33.398;-70.572;2024-03-22T02:20:15;93193.91;;;25.20;38.17
74336;BME280;62755;-33.398;-70.572;2024-03-22T02:22:43;93192.69;;;25.10;38.05
74336;BME280;62755;-33.398;-70.572;2024-03-22T02:25:15;93187.44;;;25.01;38.98
74336;BME280;62755;-33.398;-70.572;2024-03-22T02:27:44;93187.69;;;24.97;38.96
74336;BME280;62755;-33.398;-70.572;2024-03-22T02:30:17;93177.50;;;24.76;38.67
74336;BME280;62755;-33.398;-70.572;2024-03-22T02:32:45;93186.47;;;24.76;39.49
74336;BME280;62755;-33.398;-70.572;2024-03-22T02:35:15;93152.53;;;24.63;39.26
74336;BME280;62755;-33.398;-70.572;2024-03-22T02:37:43;93187.72;;;24.75;38.90
74336;BME280;62755;-33.398;-70.572;2024-03-22T02:40:15;93182.47;;;24.83;39.04
74336;BME280;62755;-33.398;-70.572;2024-03-22T02:42:43;93189.44;;;24.95;38.35
74336;BME280;62755;-33.398;-70.572;2024-03-22T02:45:13;93183.44;;;25.13;38.32
74336;BME280;62755;-33.398;-70.572;2024-03-22T02:47:41;93184.44;;;25.10;38.42
74336;BME280;62755;-33.398;-70.572;2024-03-22T02:50:11;93180.91;;;25.26;38.11
74336;BME280;62755;-33.398;-70.572;2024-03-22T02:52:40;93177.19;;;25.23;37.87
74336;BME280;62755;-33.398;-70.572;2024-03-22T02:55:10;93184.41;;;25.43;38.03
74336;BME280;62755;-33.398;-70.572;2024-03-22T02:57:40;93183.16;;;25.44;37.89
74336;BME280;62755;-33.398;-70.572;2024-03-22T03:00:10;93170.66;;;25.38;37.63
74336;BME280;62755;-33.398;-70.572;2024-03-22T03:02:39;93171.91;;;25.48;37.76
74336;BME280;62755;-33.398;-70.572;2024-03-22T03:05:09;93172.19;;;25.33;37.45
74336;BME280;62755;-33.398;-70.572;2024-03-22T03:07:37;93142.78;;;25.00;37.18
74336;BME280;62755;-33.398;-70.572;2024-03-22T03:10:08;93166.19;;;25.18;37.17
74336;BME280;62755;-33.398;-70.572;2024-03-22T03:12:38;93165.25;;;24.93;38.38
74336;BME280;62755;-33.398;-70.572;2024-03-22T03:15:08;93164.75;;;24.95;37.39
74336;BME280;62755;-33.398;-70.572;2024-03-22T03:17:37;93161.00;;;25.03;37.47
74336;BME280;62755;-33.398;-70.572;2024-03-22T03:20:07;93161.03;;;24.98;37.96
74336;BME280;62755;-33.398;-70.572;2024-03-22T03:22:37;93158.28;;;24.81;37.99
74336;BME280;62755;-33.398;-70.572;2024-03-22T03:25:08;93155.75;;;24.94;38.20
74336;BME280;62755;-33.398;-70.572;2024-03-22T03:27:36;93152.28;;;24.83;38.33
74336;BME280;62755;-33.398;-70.572;2024-03-22T03:30:08;93151.28;;;24.53;38.46
74336;BME280;62755;-33.398;-70.572;2024-03-22T03:32:37;93156.78;;;24.53;37.59
74336;BME280;62755;-33.398;-70.572;2024-03-22T03:35:07;93145.78;;;24.41;38.02
74336;BME280;62755;-33.398;-70.572;2024-03-22T03:37:35;93145.53;;;24.28;37.36
74336;BME280;62755;-33.398;-70.572;2024-03-22T03:40:06;93147.28;;;24.31;37.61
74336;BME280;62755;-33.398;-70.572;2024-03-22T03:42:34;93147.53;;;24.33;37.29
74336;BME280;62755;-33.398;-70.572;2024-03-22T03:45:04;93144.03;;;24.50;37.04
74336;BME280;62755;-33.398;-70.572;2024-03-22T03:47:34;93146.56;;;24.59;37.13
74336;BME280;62755;-33.398;-70.572;2024-03-22T03:50:04;93140.31;;;24.53;36.72
74336;BME280;62755;-33.398;-70.572;2024-03-22T03:52:32;93134.56;;;24.62;36.90
74336;BME280;62755;-33.398;-70.572;2024-03-22T03:55:02;93127.09;;;24.51;36.70
74336;BME280;62755;-33.398;-70.572;2024-03-22T03:57:31;93137.31;;;24.56;36.71
74336;BME280;62755;-33.398;-70.572;2024-03-22T04:00:01;93134.06;;;24.35;37.17
74336;BME280;62755;-33.398;-70.572;2024-03-22T04:02:29;93144.03;;;24.27;37.53
74336;BME280;62755;-33.398;-70.572;2024-03-22T04:05:00;93133.06;;;24.05;37.85
74336;BME280;62755;-33.398;-70.572;2024-03-22T04:07:28;93141.22;;;23.94;38.80
74336;BME280;62755;-33.398;-70.572;2024-03-22T04:09:58;93130.31;;;24.11;38.86
74336;BME280;62755;-33.398;-70.572;2024-03-22T04:12:27;93127.06;;;24.12;38.74
74336;BME280;62755;-33.398;-70.572;2024-03-22T04:14:57;93124.09;;;24.10;38.95
74336;BME280;62755;-33.398;-70.572;2024-03-22T04:17:25;93127.00;;;23.90;38.99
74336;BME280;62755;-33.398;-70.572;2024-03-22T04:19:55;93130.06;;;24.03;38.94
74336;BME280;62755;-33.398;-70.572;2024-03-22T04:22:25;93130.28;;;24.00;38.96
74336;BME280;62755;-33.398;-70.572;2024-03-22T04:24:54;93126.53;;;23.97;38.04
74336;BME280;62755;-33.398;-70.572;2024-03-22T04:27:23;93129.78;;;23.96;38.13
74336;BME280;62755;-33.398;-70.572;2024-03-22T04:29:52;93135.53;;;24.03;37.84
74336;BME280;62755;-33.398;-70.572;2024-03-22T04:32:21;93133.78;;;24.06;38.25
74336;BME280;62755;-33.398;-70.572;2024-03-22T04:34:50;93134.78;;;24.14;37.72
74336;BME280;62755;-33.398;-70.572;2024-03-22T04:37:18;93140.56;;;24.21;37.95
74336;BME280;62755;-33.398;-70.572;2024-03-22T04:39:50;93148.50;;;24.08;38.02
74336;BME280;62755;-33.398;-70.572;2024-03-22T04:42:19;93144.53;;;24.09;37.93
74336;BME280;62755;-33.398;-70.572;2024-03-22T04:44:49;93149.50;;;24.05;38.37
74336;BME280;62755;-33.398;-70.572;2024-03-22T04:47:19;93145.75;;;24.03;38.35
74336;BME280;62755;-33.398;-70.572;2024-03-22T04:49:48;93138.97;;;23.98;38.42
74336;BME280;62755;-33.398;-70.572;2024-03-22T04:52:18;93147.91;;;23.82;38.79
74336;BME280;62755;-33.398;-70.572;2024-03-22T04:54:48;93147.13;;;23.71;39.54
74336;BME280;62755;-33.398;-70.572;2024-03-22T04:57:17;93143.41;;;23.79;39.46
74336;BME280;62755;-33.398;-70.572;2024-03-22T04:59:46;93147.63;;;23.75;39.58
74336;BME280;62755;-33.398;-70.572;2024-03-22T05:02:15;93145.16;;;23.82;39.55
74336;BME280;62755;-33.398;-70.572;2024-03-22T05:04:45;93143.94;;;23.83;39.27
74336;BME280;62755;-33.398;-70.572;2024-03-22T05:07:16;93142.47;;;23.93;39.35
74336;BME280;62755;-33.398;-70.572;2024-03-22T05:09:44;93139.47;;;23.80;39.95
74336;BME280;62755;-33.398;-70.572;2024-03-22T05:12:16;93137.94;;;23.79;40.04
74336;BME280;62755;-33.398;-70.572;2024-03-22T05:14:44;93139.13;;;23.62;40.02
74336;BME280;62755;-33.398;-70.572;2024-03-22T05:17:14;93132.44;;;23.68;39.89
74336;BME280;62755;-33.398;-70.572;2024-03-22T05:19:42;93130.47;;;23.74;39.27
74336;BME280;62755;-33.398;-70.572;2024-03-22T05:22:12;93116.00;;;23.68;39.22
74336;BME280;62755;-33.398;-70.572;2024-03-22T05:24:40;93112.97;;;23.55;39.67
74336;BME280;62755;-33.398;-70.572;2024-03-22T05:27:09;93115.97;;;23.57;39.79
74336;BME280;62755;-33.398;-70.572;2024-03-22T05:29:39;93110.47;;;23.46;40.18
74336;BME280;62755;-33.398;-70.572;2024-03-22T05:32:09;93101.47;;;23.40;40.53
74336;BME280;62755;-33.398;-70.572;2024-03-22T05:34:37;93097.75;;;23.43;40.20
74336;BME280;62755;-33.398;-70.572;2024-03-22T05:37:07;93097.03;;;23.48;40.08
74336;BME280;62755;-33.398;-70.572;2024-03-22T05:39:38;93096.53;;;23.44;39.78
74336;BME280;62755;-33.398;-70.572;2024-03-22T05:42:07;93090.78;;;23.42;39.82
74336;BME280;62755;-33.398;-70.572;2024-03-22T05:44:36;93073.78;;;23.27;39.99
74336;BME280;62755;-33.398;-70.572;2024-03-22T05:47:07;93089.53;;;23.43;39.41
74336;BME280;62755;-33.398;-70.572;2024-03-22T05:49:37;93085.09;;;23.51;39.19
74336;BME280;62755;-33.398;-70.572;2024-03-22T05:52:05;93076.69;;;23.71;39.40
74336;BME280;62755;-33.398;-70.572;2024-03-22T05:54:35;93074.72;;;23.88;39.27
74336;BME280;62755;-33.398;-70.572;2024-03-22T05:57:03;93070.75;;;23.89;39.67
74336;BME280;62755;-33.398;-70.572;2024-03-22T05:59:33;93071.03;;;24.02;39.38
74336;BME280;62755;-33.398;-70.572;2024-03-22T06:02:02;93078.72;;;23.98;39.61
74336;BME280;62755;-33.398;-70.572;2024-03-22T06:04:33;93068.28;;;24.02;39.97
74336;BME280;62755;-33.398;-70.572;2024-03-22T06:07:01;93071.00;;;23.97;39.70
74336;BME280;62755;-33.398;-70.572;2024-03-22T06:09:31;93072.72;;;23.94;39.72
74336;BME280;62755;-33.398;-70.572;2024-03-22T06:12:05;93067.75;;;23.98;40.12
74336;BME280;62755;-33.398;-70.572;2024-03-22T06:14:35;93062.03;;;24.02;39.57
74336;BME280;62755;-33.398;-70.572;2024-03-22T06:17:04;93059.78;;;23.89;39.69
74336;BME280;62755;-33.398;-70.572;2024-03-22T06:19:36;93051.31;;;23.76;39.65
74336;BME280;62755;-33.398;-70.572;2024-03-22T06:22:04;93058.28;;;23.77;39.31
74336;BME280;62755;-33.398;-70.572;2024-03-22T06:24:34;93060.50;;;23.68;39.31
74336;BME280;62755;-33.398;-70.572;2024-03-22T06:27:02;93064.44;;;23.55;39.70
74336;BME280;62755;-33.398;-70.572;2024-03-22T06:29:32;93065.22;;;23.62;39.55
74336;BME280;62755;-33.398;-70.572;2024-03-22T06:32:00;93064.25;;;23.81;39.35
74336;BME280;62755;-33.398;-70.572;2024-03-22T06:34:30;93065.47;;;23.75;39.33
74336;BME280;62755;-33.398;-70.572;2024-03-22T06:37:02;93064.66;;;23.41;39.15
74336;BME280;62755;-33.398;-70.572;2024-03-22T06:39:30;93063.09;;;23.29;40.32
74336;BME280;62755;-33.398;-70.572;2024-03-22T06:41:59;93051.31;;;23.06;40.58
74336;BME280;62755;-33.398;-70.572;2024-03-22T06:44:28;93062.53;;;23.08;41.06
74336;BME280;62755;-33.398;-70.572;2024-03-22T06:46:58;93058.44;;;23.35;40.51
74336;BME280;62755;-33.398;-70.572;2024-03-22T06:49:26;93058.72;;;23.48;40.19
74336;BME280;62755;-33.398;-70.572;2024-03-22T06:51:55;93058.47;;;23.63;40.13
74336;BME280;62755;-33.398;-70.572;2024-03-22T06:54:26;93056.28;;;23.72;40.11
74336;BME280;62755;-33.398;-70.572;2024-03-22T06:56:55;93057.00;;;23.73;40.09
74336;BME280;62755;-33.398;-70.572;2024-03-22T06:59:24;93057.00;;;23.73;40.36
74336;BME280;62755;-33.398;-70.572;2024-03-22T07:01:53;93054.75;;;23.60;40.62
74336;BME280;62755;-33.398;-70.572;2024-03-22T07:04:21;93051.78;;;23.58;40.67
74336;BME280;62755;-33.398;-70.572;2024-03-22T07:06:51;93049.25;;;23.49;40.73
74336;BME280;62755;-33.398;-70.572;2024-03-22T07:09:19;93057.69;;;23.34;41.13
74336;BME280;62755;-33.398;-70.572;2024-03-22T07:11:51;93050.56;;;23.06;41.36
74336;BME280;62755;-33.398;-70.572;2024-03-22T07:14:19;93054.56;;;23.05;40.74
74336;BME280;62755;-33.398;-70.572;2024-03-22T07:16:51;93050.03;;;23.02;40.75
74336;BME280;62755;-33.398;-70.572;2024-03-22T07:19:21;93038.59;;;22.98;40.47
74336;BME280;62755;-33.398;-70.572;2024-03-22T07:21:51;93032.13;;;22.95;40.71
74336;BME280;62755;-33.398;-70.572;2024-03-22T07:24:19;93032.13;;;22.90;41.46
74336;BME280;62755;-33.398;-70.572;2024-03-22T07:26:52;93006.34;;;22.59;41.40
74336;BME280;62755;-33.398;-70.572;2024-03-22T07:29:21;93027.56;;;22.76;41.12
74336;BME280;62755;-33.398;-70.572;2024-03-22T07:31:50;93025.22;;;22.57;41.72
74336;BME280;62755;-33.398;-70.572;2024-03-22T07:34:19;93029.31;;;22.36;41.67
74336;BME280;62755;-33.398;-70.572;2024-03-22T07:36:48;93020.13;;;22.39;41.42
74336;BME280;62755;-33.398;-70.572;2024-03-22T07:39:17;93035.22;;;22.29;41.87
74336;BME280;62755;-33.398;-70.572;2024-03-22T07:41:46;93022.63;;;22.43;41.64
74336;BME280;62755;-33.398;-70.572;2024-03-22T07:44:16;93023.84;;;22.36;41.76
74336;BME280;62755;-33.398;-70.572;2024-03-22T07:46:47;93014.25;;;22.15;42.15
74336;BME280;62755;-33.398;-70.572;2024-03-22T07:49:15;93012.81;;;22.25;41.42
74336;BME280;62755;-33.398;-70.572;2024-03-22T07:51:45;93014.16;;;22.04;41.91
74336;BME280;62755;-33.398;-70.572;2024-03-22T07:54:13;93012.75;;;22.14;41.68
74336;BME280;62755;-33.398;-70.572;2024-03-22T07:56:43;93010.25;;;22.11;42.20
74336;BME280;62755;-33.398;-70.572;2024-03-22T07:59:11;93013.84;;;22.28;42.25
74336;BME280;62755;-33.398;-70.572;2024-03-22T08:01:42;93004.72;;;22.36;41.88
74336;BME280;62755;-33.398;-70.572;2024-03-22T08:04:11;93010.25;;;22.53;41.73
74336;BME280;62755;-33.398;-70.572;2024-03-22T08:06:40;93000.03;;;22.42;41.92
74336;BME280;62755;-33.398;-70.572;2024-03-22T08:09:08;92990.28;;;22.36;41.69
74336;BME280;62755;-33.398;-70.572;2024-03-22T08:11:38;92992.63;;;22.48;41.53
74336;BME280;62755;-33.398;-70.572;2024-03-22T08:14:06;92990.44;;;22.58;41.23
74336;BME280;62755;-33.398;-70.572;2024-03-22T08:16:36;92987.75;;;22.69;40.77
74336;BME280;62755;-33.398;-70.572;2024-03-22T08:19:06;92982.53;;;22.65;40.30
74336;BME280;62755;-33.398;-70.572;2024-03-22T08:21:35;92970.81;;;22.59;40.17
74336;BME280;62755;-33.398;-70.572;2024-03-22T08:24:04;92978.22;;;22.53;40.64
74336;BME280;62755;-33.398;-70.572;2024-03-22T08:26:34;92970.69;;;22.37;40.54
74336;BME280;62755;-33.398;-70.572;2024-03-22T08:29:02;92975.69;;;22.44;40.56
74336;BME280;62755;-33.398;-70.572;2024-03-22T08:31:32;92961.97;;;22.39;40.84
74336;BME280;62755;-33.398;-70.572;2024-03-22T08:34:00;92974.66;;;22.36;41.15
74336;BME280;62755;-33.398;-70.572;2024-03-22T08:36:34;92976.09;;;22.26;41.12
74336;BME280;62755;-33.398;-70.572;2024-03-22T08:39:02;92972.34;;;22.24;41.06
74336;BME280;62755;-33.398;-70.572;2024-03-22T08:41:32;92978.09;;;22.31;41.21
74336;BME280;62755;-33.398;-70.572;2024-03-22T08:44:00;92982.44;;;22.12;40.46
74336;BME280;62755;-33.398;-70.572;2024-03-22T08:46:30;92973.53;;;22.17;40.40
74336;BME280;62755;-33.398;-70.572;2024-03-22T08:48:59;92974.25;;;22.12;40.98
74336;BME280;62755;-33.398;-70.572;2024-03-22T08:51:30;92979.66;;;22.01;40.54
74336;BME280;62755;-33.398;-70.572;2024-03-22T08:54:00;92983.63;;;22.06;40.24
74336;BME280;62755;-33.398;-70.572;2024-03-22T08:56:31;92987.59;;;21.99;40.59
74336;BME280;62755;-33.398;-70.572;2024-03-22T08:58:59;92980.44;;;22.07;40.62
74336;BME280;62755;-33.398;-70.572;2024-03-22T09:01:29;92978.88;;;21.95;40.51
74336;BME280;62755;-33.398;-70.572;2024-03-22T09:03:57;92980.09;;;21.94;40.59
74336;BME280;62755;-33.398;-70.572;2024-03-22T09:06:27;92976.56;;;21.88;40.26
74336;BME280;62755;-33.398;-70.572;2024-03-22T09:08:55;92984.50;;;21.86;40.61
74336;BME280;62755;-33.398;-70.572;2024-03-22T09:11:26;92986.13;;;21.78;40.91
74336;BME280;62755;-33.398;-70.572;2024-03-22T09:13:55;92979.75;;;21.81;40.76
74336;BME280;62755;-33.398;-70.572;2024-03-22T09:16:25;92981.75;;;21.86;40.64
74336;BME280;62755;-33.398;-70.572;2024-03-22T09:18:53;92978.22;;;21.80;41.17
74336;BME280;62755;-33.398;-70.572;2024-03-22T09:21:22;92987.66;;;21.79;41.23
74336;BME280;62755;-33.398;-70.572;2024-03-22T09:23:51;92983.25;;;21.56;42.09
74336;BME280;62755;-33.398;-70.572;2024-03-22T09:26:21;92978.41;;;21.45;42.11
74336;BME280;62755;-33.398;-70.572;2024-03-22T09:28:51;92977.28;;;21.57;42.36
74336;BME280;62755;-33.398;-70.572;2024-03-22T09:31:21;92979.53;;;21.59;42.13
74336;BME280;62755;-33.398;-70.572;2024-03-22T09:33:49;92972.38;;;21.36;41.98
74336;BME280;62755;-33.398;-70.572;2024-03-22T09:36:19;92977.41;;;21.43;42.16
74336;BME280;62755;-33.398;-70.572;2024-03-22T09:38:48;92990.94;;;21.32;41.55
74336;BME280;62755;-33.398;-70.572;2024-03-22T09:41:22;92988.31;;;21.43;41.33
74336;BME280;62755;-33.398;-70.572;2024-03-22T09:43:55;92985.53;;;21.63;40.73
74336;BME280;62755;-33.398;-70.572;2024-03-22T09:46:27;92980.94;;;21.80;40.42
74336;BME280;62755;-33.398;-70.572;2024-03-22T09:48:58;92995.56;;;21.77;40.57
74336;BME280;62755;-33.398;-70.572;2024-03-22T09:51:28;92984.31;;;21.95;40.70
74336;BME280;62755;-33.398;-70.572;2024-03-22T09:53:58;92990.94;;;22.20;39.95
74336;BME280;62755;-33.398;-70.572;2024-03-22T09:56:27;92982.50;;;22.23;39.85
74336;BME280;62755;-33.398;-70.572;2024-03-22T09:59:01;92995.53;;;22.39;40.07
74336;BME280;62755;-33.398;-70.572;2024-03-22T10:01:30;92986.41;;;22.11;40.18
74336;BME280;62755;-33.398;-70.572;2024-03-22T10:04:01;92991.16;;;22.16;39.73
74336;BME280;62755;-33.398;-70.572;2024-03-22T10:06:30;92981.28;;;22.24;39.09
74336;BME280;62755;-33.398;-70.572;2024-03-22T10:09:00;92989.72;;;22.21;38.78
74336;BME280;62755;-33.398;-70.572;2024-03-22T10:11:28;93002.34;;;22.18;39.01
74336;BME280;62755;-33.398;-70.572;2024-03-22T10:14:01;93003.19;;;22.30;38.59
74336;BME280;62755;-33.398;-70.572;2024-03-22T10:16:34;93003.06;;;22.50;37.62
74336;BME280;62755;-33.398;-70.572;2024-03-22T10:19:04;93000.09;;;22.53;38.21
74336;BME280;62755;-33.398;-70.572;2024-03-22T10:21:32;93001.50;;;22.43;39.55
74336;BME280;62755;-33.398;-70.572;2024-03-22T10:24:02;93008.44;;;22.39;39.55
74336;BME280;62755;-33.398;-70.572;2024-03-22T10:26:33;93006.63;;;22.25;38.83
74336;BME280;62755;-33.398;-70.572;2024-03-22T10:29:06;93011.09;;;22.28;37.51
74336;BME280;62755;-33.398;-70.572;2024-03-22T10:31:36;93003.69;;;22.34;37.08
74336;BME280;62755;-33.398;-70.572;2024-03-22T10:34:07;93013.09;;;22.27;36.90
74336;BME280;62755;-33.398;-70.572;2024-03-22T10:36:36;93003.66;;;22.28;37.99
74336;BME280;62755;-33.398;-70.572;2024-03-22T10:39:05;93020.09;;;22.34;38.37
74336;BME280;62755;-33.398;-70.572;2024-03-22T10:41:34;93020.31;;;22.30;37.62
74336;BME280;62755;-33.398;-70.572;2024-03-22T10:44:05;93017.31;;;22.28;37.41
74336;BME280;62755;-33.398;-70.572;2024-03-22T10:46:36;93021.56;;;22.35;37.71
74336;BME280;62755;-33.398;-70.572;2024-03-22T10:49:06;93020.13;;;22.39;38.03
74336;BME280;62755;-33.398;-70.572;2024-03-22T10:51:36;93008.41;;;22.33;37.11
74336;BME280;62755;-33.398;-70.572;2024-03-22T10:54:07;93004.56;;;22.14;38.22
74336;BME280;62755;-33.398;-70.572;2024-03-22T10:56:36;93009.31;;;21.88;39.09
74336;BME280;62755;-33.398;-70.572;2024-03-22T10:59:08;93014.25;;;21.84;39.39
74336;BME280;62755;-33.398;-70.572;2024-03-22T11:01:36;93012.78;;;21.83;39.50
74336;BME280;62755;-33.398;-70.572;2024-03-22T11:04:06;93017.31;;;21.66;39.38
74336;BME280;62755;-33.398;-70.572;2024-03-22T11:06:37;93014.09;;;21.67;39.40
74336;BME280;62755;-33.398;-70.572;2024-03-22T11:09:08;93007.56;;;21.59;40.07
74336;BME280;62755;-33.398;-70.572;2024-03-22T11:11:37;93023.78;;;21.43;40.61
74336;BME280;62755;-33.398;-70.572;2024-03-22T11:14:09;93030.56;;;21.53;40.76
74336;BME280;62755;-33.398;-70.572;2024-03-22T11:16:37;93033.44;;;21.64;40.87
74336;BME280;62755;-33.398;-70.572;2024-03-22T11:19:07;93026.28;;;21.72;40.71
74336;BME280;62755;-33.398;-70.572;2024-03-22T11:21:35;93033.69;;;21.66;40.92
74336;BME280;62755;-33.398;-70.572;2024-03-22T11:24:05;93037.53;;;21.79;40.75
74336;BME280;62755;-33.398;-70.572;2024-03-22T11:26:33;93041.81;;;21.86;40.54
74336;BME280;62755;-33.398;-70.572;2024-03-22T11:29:03;93031.22;;;21.94;40.30
74336;BME280;62755;-33.398;-70.572;2024-03-22T11:31:34;93042.25;;;22.05;39.68
74336;BME280;62755;-33.398;-70.572;2024-03-22T11:34:04;93047.16;;;21.75;40.23
74336;BME280;62755;-33.398;-70.572;2024-03-22T11:36:32;93048.13;;;21.72;39.39
74336;BME280;62755;-33.398;-70.572;2024-03-22T11:39:02;93054.25;;;21.87;39.28
74336;BME280;62755;-33.398;-70.572;2024-03-22T11:41:32;93035.84;;;21.82;39.24
74336;BME280;62755;-33.398;-70.572;2024-03-22T11:44:02;93059.81;;;21.98;38.65
74336;BME280;62755;-33.398;-70.572;2024-03-22T11:46:32;93065.31;;;22.04;38.84
74336;BME280;62755;-33.398;-70.572;2024-03-22T11:49:02;93066.94;;;22.21;37.69
74336;BME280;62755;-33.398;-70.572;2024-03-22T11:51:31;93061.34;;;22.05;39.03
74336;BME280;62755;-33.398;-70.572;2024-03-22T11:54:03;93067.63;;;21.85;38.77
74336;BME280;62755;-33.398;-70.572;2024-03-22T11:56:35;93070.19;;;21.94;38.34
74336;BME280;62755;-33.398;-70.572;2024-03-22T11:59:06;93085.78;;;21.88;40.09
74336;BME280;62755;-33.398;-70.572;2024-03-22T12:01:36;93083.56;;;21.92;40.19
74336;BME280;62755;-33.398;-70.572;2024-03-22T12:04:06;93095.22;;;21.87;39.66
74336;BME280;62755;-33.398;-70.572;2024-03-22T12:06:35;93090.88;;;22.01;40.90
74336;BME280;62755;-33.398;-70.572;2024-03-22T12:09:04;93100.16;;;22.14;39.81
74336;BME280;62755;-33.398;-70.572;2024-03-22T12:11:34;93100.16;;;22.14;39.20
74336;BME280;62755;-33.398;-70.572;2024-03-22T12:14:03;93099.44;;;22.19;38.82
74336;BME280;62755;-33.398;-70.572;2024-03-22T12:16:32;93098.09;;;22.35;39.34
74336;BME280;62755;-33.398;-70.572;2024-03-22T12:19:03;93103.34;;;22.38;39.63
74336;BME280;62755;-33.398;-70.572;2024-03-22T12:21:31;93102.84;;;22.40;39.77
74336;BME280;62755;-33.398;-70.572;2024-03-22T12:24:01;93103.63;;;22.40;40.30
74336;BME280;62755;-33.398;-70.572;2024-03-22T12:26:29;93114.34;;;22.49;40.35
74336;BME280;62755;-33.398;-70.572;2024-03-22T12:28:59;93117.66;;;22.59;39.96
74336;BME280;62755;-33.398;-70.572;2024-03-22T12:31:27;93120.00;;;22.72;39.47
74336;BME280;62755;-33.398;-70.572;2024-03-22T12:33:57;93115.50;;;22.68;39.09
74336;BME280;62755;-33.398;-70.572;2024-03-22T12:36:27;93119.03;;;22.75;38.70
74336;BME280;62755;-33.398;-70.572;2024-03-22T12:38:56;93126.53;;;22.80;37.87
74336;BME280;62755;-33.398;-70.572;2024-03-22T12:41:24;93121.78;;;22.80;37.73